Riverside, CA (92509)

3:23 AM PDT on September 04, 2015 (GMT -0700)
Indian Hills | | Change Station
CLOSE
Current Station
Personal Weather Station
Location: Riverside, CA
Elevation: 1070 ft
Nearby Weather Stations

Elev 1070 ft 33.99 °N, 117.45 °W | Updated 4 minutes ago

Partly Cloudy
Partly Cloudy
60.4 °F
Feels Like 60.4 °F
N
0.0
Wind Variable Wind from North
Gusts 3.0 mph

Today
High -- | Low -- °F
--% Chance of Precip.
Yesterday
High -- | Low -- °F
Precip. -- in
6:25 AM 7:11 PM
Waning Gibbous, 61% visible
Pressure 29.83 in
Visibility 10.0 miles
Clouds Clear
Dew Point 57 °F
Humidity 88%
Rainfall 0.00 in
Snow Depth Not available.
UV 0 out of 12
Pollen 7.80 out of 12
Air Quality Not available.
Flu Activity Not available.
METAR KRAL 040953Z AUTO 00000KT 10SM CLR 17/13 A2988 RMK AO2 SLP101 T01720133
Pressure 29.83 in
Visibility 10.0 miles
Clouds Clear
Dew Point 57 °F
Humidity 88%
Rainfall 0.00 in
Snow Depth Not available.
UV 0 out of 12
Pollen 7.80 out of 12
Air Quality Not available.
Flu Activity Not available.
METAR KRAL 040953Z AUTO 00000KT 10SM CLR 17/13 A2988 RMK AO2 SLP101 T01720133

10-Day Weather Forecast

×

Almanac

Astronomy

Sep. 04, 2015 Rise Set
Actual Time
Civil Twilight
Nautical Twilight
Astronomical Twilight
Moon
Length of Visible Light
Length of Day
Tomorrow will be .
, % of the Moon is Illuminated

Today's Extremes

State Highs State Lows

Community

WunderPhotos

Upload Photos

1,852,146 photos uploaded!

WunderBlogs® & News

Nearby

Air Quality

  Air Quality AQ Index Pollutant
Not available.

Snow Depth

Station Depth Elevation

Earthquake Activity

City Distance Mag. Time & Date
Minimum magnitude displayed is 2.5.

Coastal Water Temperatures

Place Temperature

Stations

Nearby Weather Stations

Station Location Temp. Windchill Dew Point Humidity Wind Precip. Elev Updated Type